createdAt,value
2022-10-11T03:01:24.329Z,75.90
2022-10-11T03:03:52.821Z,75.92
2022-10-11T03:06:21.184Z,75.59
2022-10-11T03:08:49.539Z,75.54
2022-10-11T03:11:17.951Z,75.52
2022-10-11T03:13:46.281Z,75.51
2022-10-11T03:16:15.853Z,75.53
2022-10-11T03:18:45.794Z,76.21
2022-10-11T03:21:14.125Z,76.35
2022-10-11T03:23:42.626Z,76.26
2022-10-11T03:26:10.977Z,75.87
2022-10-11T03:28:39.342Z,75.67
2022-10-11T03:31:07.932Z,75.39
2022-10-11T03:33:36.354Z,75.30
2022-10-11T03:36:07.632Z,75.14
2022-10-11T03:38:36.272Z,75.78
2022-10-11T03:41:04.697Z,75.51
2022-10-11T03:43:33.121Z,74.98
2022-10-11T03:46:02.173Z,75.61
2022-10-11T03:48:30.968Z,75.85
2022-10-11T03:50:59.298Z,75.53
2022-10-11T03:53:29.017Z,75.76
2022-10-11T03:55:58.143Z,75.95
2022-10-11T03:58:26.516Z,75.78
2022-10-11T04:00:54.968Z,76.49
2022-10-11T04:03:23.315Z,76.45
2022-10-11T04:05:51.629Z,76.79
2022-10-11T04:08:20.001Z,76.47
2022-10-11T04:10:49.816Z,76.41
2022-10-11T04:13:18.539Z,76.52
2022-10-11T04:15:48.174Z,76.99
2022-10-11T04:18:16.531Z,77.26
2022-10-11T04:20:45.196Z,77.77
2022-10-11T04:23:13.469Z,77.24
2022-10-11T04:25:41.837Z,77.64
2022-10-11T04:28:11.552Z,78.01
2022-10-11T04:30:40.910Z,77.96
2022-10-11T04:33:11.568Z,78.16
2022-10-11T04:35:40.123Z,78.04
2022-10-11T04:38:08.509Z,78.84
2022-10-11T04:40:37.183Z,78.56
2022-10-11T04:43:05.535Z,78.72
2022-10-11T04:45:35.279Z,78.36
2022-10-11T04:48:03.727Z,78.88
2022-10-11T04:50:32.061Z,78.69
2022-10-11T04:53:00.567Z,78.76
2022-10-11T04:55:29.497Z,79.10
2022-10-11T04:57:57.844Z,78.99
2022-10-11T05:00:27.471Z,79.13
2022-10-11T05:02:57.368Z,79.54
2022-10-11T05:05:25.782Z,79.51
2022-10-11T05:07:54.124Z,79.40
2022-10-11T05:10:22.525Z,79.74
2022-10-11T05:12:50.831Z,79.66
2022-10-11T05:15:19.463Z,80.19
2022-10-11T05:17:47.773Z,80.19
2022-10-11T05:20:17.790Z,79.84
2022-10-11T05:22:46.173Z,80.05
2022-10-11T05:25:14.604Z,79.81
2022-10-11T05:27:43.056Z,79.86
2022-10-11T05:30:12.756Z,80.31
2022-10-11T05:32:41.088Z,80.98
2022-10-11T05:35:10.550Z,81.55
2022-10-11T05:37:40.260Z,81.74
2022-10-11T05:40:11.012Z,81.64
2022-10-11T05:42:39.484Z,81.22
2022-10-11T05:45:09.120Z,81.24
2022-10-11T05:47:37.512Z,81.48
2022-10-11T05:50:06.547Z,81.90
2022-10-11T05:52:34.904Z,82.02
2022-10-11T05:55:05.152Z,81.88
2022-10-11T05:57:33.467Z,82.08
2022-10-11T06:00:01.834Z,81.83
2022-10-11T06:02:40.547Z,82.22
2022-10-11T06:05:09.797Z,82.25
2022-10-11T06:07:38.431Z,82.28
2022-10-11T06:10:09.724Z,82.51
2022-10-11T06:12:38.774Z,82.45
2022-10-11T06:15:10.332Z,82.37
2022-10-11T06:17:38.969Z,85.15
2022-10-11T06:20:10.054Z,84.13
2022-10-11T06:22:38.401Z,83.57
2022-10-11T06:25:09.679Z,80.76
2022-10-11T06:27:38.042Z,80.91
2022-10-11T06:30:08.259Z,81.51
2022-10-11T06:32:36.648Z,81.75
2022-10-11T06:35:06.345Z,81.63
2022-10-11T06:37:34.651Z,81.37
2022-10-11T06:40:03.149Z,81.24
2022-10-11T06:42:32.805Z,81.68
2022-10-11T06:45:01.179Z,81.68
2022-10-11T06:47:29.599Z,81.52
2022-10-11T06:49:57.946Z,81.53
2022-10-11T06:52:26.365Z,81.49
2022-10-11T06:54:54.705Z,80.92
2022-10-11T06:57:23.077Z,80.72
2022-10-11T06:59:52.860Z,80.66
2022-10-11T07:02:21.213Z,80.54
2022-10-11T07:04:49.707Z,80.86
2022-10-11T07:07:18.387Z,80.79
2022-10-11T07:09:46.755Z,80.65
2022-10-11T07:12:16.202Z,80.18
2022-10-11T07:14:44.549Z,80.30
2022-10-11T07:17:14.250Z,79.67
2022-10-11T07:19:42.584Z,79.28
2022-10-11T07:22:10.871Z,79.19
2022-10-11T07:24:39.249Z,79.12
2022-10-11T07:27:07.613Z,79.53
2022-10-11T07:29:36.061Z,79.22
2022-10-11T07:32:04.714Z,79.43
2022-10-11T07:34:34.826Z,79.27
2022-10-11T07:37:03.173Z,79.42
2022-10-11T07:39:32.119Z,79.67
2022-10-11T07:42:00.480Z,79.67
2022-10-11T07:44:28.899Z,79.42
2022-10-11T07:46:57.295Z,78.89
2022-10-11T07:49:25.669Z,78.71
2022-10-11T07:51:55.438Z,78.68
2022-10-11T07:54:23.798Z,78.76
2022-10-11T07:56:52.149Z,78.64
2022-10-11T07:59:20.468Z,78.86
2022-10-11T08:01:48.983Z,78.95
2022-10-11T08:04:17.781Z,79.29
2022-10-11T08:06:48.679Z,79.36
2022-10-11T08:09:22.178Z,78.65
2022-10-11T08:11:50.500Z,78.39
2022-10-11T08:14:19.108Z,77.78
2022-10-11T08:16:47.554Z,77.01
2022-10-11T08:19:15.964Z,74.84
2022-10-11T08:21:44.385Z,73.35
2022-10-11T08:24:14.014Z,70.22
2022-10-11T08:26:43.773Z,68.70
2022-10-11T08:29:12.187Z,67.21
2022-10-11T08:31:40.583Z,65.67
2022-10-11T08:34:08.999Z,64.17
2022-10-11T08:36:37.572Z,64.82
2022-10-11T08:39:06.378Z,65.02
2022-10-11T08:41:42.004Z,63.52
2022-10-11T08:44:58.330Z,62.63
2022-10-11T08:47:29.377Z,59.81
2022-10-11T08:50:00.258Z,58.70
2022-10-11T08:52:42.033Z,58.24
2022-10-11T08:55:20.964Z,59.32
2022-10-11T08:57:55.541Z,59.24
2022-10-11T09:00:29.431Z,59.34
2022-10-11T09:03:09.050Z,59.23
2022-10-11T09:05:51.954Z,59.60
2022-10-11T09:08:26.657Z,58.61
2022-10-11T09:11:05.591Z,57.55
2022-10-11T09:13:58.006Z,56.68
2022-10-11T09:16:43.377Z,57.05
2022-10-11T09:19:51.548Z,57.36
2022-10-11T09:22:31.117Z,57.49
2022-10-11T09:25:20.186Z,57.79
2022-10-11T09:28:03.555Z,56.60
2022-10-11T09:30:33.418Z,57.43
2022-10-11T09:33:13.542Z,56.40
2022-10-11T09:35:47.628Z,55.18
2022-10-11T09:38:27.893Z,54.49
2022-10-11T09:41:12.603Z,54.40
2022-10-11T09:43:41.190Z,55.24
2022-10-11T09:46:23.529Z,56.13
2022-10-11T09:48:56.399Z,55.24
2022-10-11T09:51:28.434Z,56.03
2022-10-11T09:53:59.717Z,54.53
2022-10-11T09:56:31.565Z,54.75
2022-10-11T09:59:22.757Z,53.29
2022-10-11T10:02:07.749Z,52.22
2022-10-11T10:04:55.616Z,51.80
2022-10-11T10:07:24.582Z,51.88
2022-10-11T10:09:53.837Z,51.23
2022-10-11T10:12:25.488Z,51.09
2022-10-11T10:15:07.058Z,50.37
2022-10-11T10:17:37.240Z,49.08
2022-10-11T10:20:18.544Z,48.53
2022-10-11T10:22:48.695Z,50.39
2022-10-11T10:25:27.608Z,51.49
2022-10-11T10:28:01.116Z,51.88
2022-10-11T10:30:35.221Z,51.56
2022-10-11T10:33:08.772Z,49.95
2022-10-11T10:35:45.594Z,50.90
2022-10-11T10:38:25.507Z,50.34
2022-10-11T10:40:58.246Z,50.64
2022-10-11T10:43:29.496Z,48.93
2022-10-11T10:46:35.325Z,46.76
2022-10-11T10:49:41.565Z,48.44
2022-10-11T10:52:33.843Z,48.08
2022-10-11T10:55:10.754Z,48.80
2022-10-11T10:58:06.305Z,49.44
2022-10-11T11:00:43.679Z,48.89
2022-10-11T11:03:20.912Z,47.69
2022-10-11T11:06:00.586Z,47.68
2022-10-11T11:08:49.221Z,47.79
2022-10-11T11:11:35.941Z,48.20
2022-10-11T11:14:16.589Z,47.02
2022-10-11T11:16:58.316Z,48.09
2022-10-11T11:19:45.947Z,48.47
2022-10-11T11:22:29.183Z,48.84
2022-10-11T11:25:16.039Z,49.36
2022-10-11T11:27:58.319Z,47.91
2022-10-11T11:30:42.235Z,48.15
2022-10-11T11:33:23.136Z,46.03
2022-10-11T11:35:55.855Z,45.98
2022-10-11T11:38:31.663Z,44.65
2022-10-11T11:41:05.215Z,46.47
2022-10-11T11:43:38.304Z,45.58
2022-10-11T11:46:13.419Z,45.68
2022-10-11T11:48:42.569Z,45.68
2022-10-11T11:51:16.759Z,45.46
2022-10-11T11:53:54.546Z,44.97
2022-10-11T11:56:46.805Z,44.33
2022-10-11T11:59:22.443Z,43.84
